Dinosaur, Colorado
Current Conditions -  °F | °C
As of 10:53 PM on Friday 24 Oct 2014 (Local Time) from KVEL Reporting Station
Clear Clear  
Wind Chill: 45°   Ceiling: Unl
Heat Index: 48°   Visibility: 10mi
Dew Point: 34°   Wind: 7mph
Humidity: 58%   Direction: 280°W
Pressure: 30.24"   Gusts: NA
Location:  40.24°N, 109.01°W
Report Text: KVEL 250453Z AUTO 28006KT 10SM CLR 09/01 A3024 RMK AO2 SLP214 T00890011
Loading
Personal Weather Stations






























Interactive Weather Map
Tropical Storm Tracking
New forecast layout! Learn more

10-Day Weather Forecast

Advertisements
Track Severe Weather on mobile